Time;durP1;ratioP1;P1;durP2;ratioP2;P2;SDS_P1;SDS_P2;PMS_P1;PMS_P2;Temp;Humidity;BMP_temperature;BMP_pressure;BME280_temperature;BME280_humidity;BME280_pressure;Samples;Min_cycle;Max_cycle;Signal;HPM_P1;HPM_P2
2024/01/15 00:00:13;;;;;;;14.25;5.70;;;;;;;-146.58;100.00;69501.63;5031342;28;20044;-65
2024/01/15 00:02:39;;;;;;;10.25;5.53;;;;;;;-146.58;100.00;69501.63;5032353;28;20025;-65
2024/01/15 00:05:04;;;;;;;9.15;6.28;;;;;;;-146.58;100.00;69501.63;5031059;28;20459;-65
2024/01/15 00:07:30;;;;;;;18.58;8.00;;;;;;;-146.58;100.00;69501.63;5032579;28;20048;-65
2024/01/15 00:09:55;;;;;;;10.45;5.75;;;;;;;-146.58;100.00;69501.63;5031366;28;20029;-65
2024/01/15 00:12:20;;;;;;;9.90;5.22;;;;;;;-146.58;100.00;69501.63;5032488;28;20496;-65
2024/01/15 00:14:46;;;;;;;12.63;6.88;;;;;;;-146.58;100.00;69501.63;5031030;28;20041;-65
2024/01/15 00:17:11;;;;;;;6.65;5.85;;;;;;;-146.58;100.00;69501.63;5032490;28;20028;-65
2024/01/15 00:19:37;;;;;;;10.90;5.22;;;;;;;-146.58;100.00;69501.63;5030549;28;20037;-65
2024/01/15 00:22:02;;;;;;;11.80;7.00;;;;;;;-146.58;100.00;69501.63;5032361;28;20025;-65
2024/01/15 00:24:28;;;;;;;10.27;5.78;;;;;;;-146.58;100.00;69501.63;5030913;28;20041;-65
2024/01/15 00:26:53;;;;;;;7.43;6.47;;;;;;;-146.58;100.00;69501.63;5031785;28;20034;-65
2024/01/15 00:29:19;;;;;;;7.38;5.75;;;;;;;-146.58;100.00;69501.63;5030980;28;20037;-65
2024/01/15 00:31:44;;;;;;;12.27;6.13;;;;;;;-146.58;100.00;69501.63;5031676;28;20041;-65
2024/01/15 00:34:10;;;;;;;9.00;5.35;;;;;;;-146.58;100.00;69501.63;5030578;28;20042;-65
2024/01/15 00:36:35;;;;;;;14.57;7.63;;;;;;;-146.58;100.00;69501.63;5031883;28;20017;-65
2024/01/15 00:39:01;;;;;;;15.80;7.55;;;;;;;-146.58;100.00;69501.63;5030718;28;20120;-65
2024/01/15 00:41:27;;;;;;;13.55;7.35;;;;;;;-146.58;100.00;69501.63;5031533;28;20112;-65
2024/01/15 00:43:53;;;;;;;6.97;6.15;;;;;;;-146.58;100.00;69501.63;5030254;28;20071;-64
2024/01/15 00:46:18;;;;;;;25.30;11.50;;;;;;;-146.58;100.00;69501.63;5031833;28;20515;-65
2024/01/15 00:48:44;;;;;;;10.00;7.30;;;;;;;-146.58;100.00;69501.63;5029973;28;20032;-65
2024/01/15 00:51:09;;;;;;;16.13;7.75;;;;;;;-146.58;100.00;69501.63;5031957;28;20025;-65
2024/01/15 00:53:34;;;;;;;24.00;8.68;;;;;;;-146.58;100.00;69501.63;5031591;28;20021;-65
2024/01/15 00:56:00;;;;;;;16.55;8.80;;;;;;;-146.58;100.00;69501.63;5030020;28;20041;-65
2024/01/15 00:58:26;;;;;;;13.95;7.07;;;;;;;-146.58;100.00;69501.63;5031776;28;20029;-64
2024/01/15 01:00:51;;;;;;;14.52;7.90;;;;;;;-146.58;100.00;69501.63;5029827;28;20400;-65
2024/01/15 01:03:17;;;;;;;14.15;7.68;;;;;;;-146.58;100.00;69501.63;5031337;28;20022;-65
2024/01/15 01:05:43;;;;;;;19.50;8.55;;;;;;;-146.58;100.00;69501.63;5029718;28;20041;-64
2024/01/15 01:08:09;;;;;;;9.48;7.88;;;;;;;-146.58;100.00;69501.63;5031674;28;20041;-65
2024/01/15 01:10:35;;;;;;;18.55;8.70;;;;;;;-146.58;100.00;69501.63;5029653;28;20071;-65
2024/01/15 01:13:00;;;;;;;14.05;7.25;;;;;;;-146.58;100.00;69501.63;5031739;28;20029;-64
2024/01/15 01:15:25;;;;;;;12.60;8.43;;;;;;;-146.58;100.00;69501.63;5029806;28;20041;-62
2024/01/15 01:17:51;;;;;;;12.48;7.93;;;;;;;-146.58;100.00;69501.63;5030984;28;20412;-64
2024/01/15 01:20:16;;;;;;;24.33;9.23;;;;;;;-146.58;100.00;69501.63;5029795;28;20505;-63
2024/01/15 01:22:42;;;;;;;13.50;7.35;;;;;;;-146.58;100.00;69501.63;5031087;28;20036;-63
2024/01/15 01:25:07;;;;;;;18.27;8.23;;;;;;;-146.58;100.00;69501.63;5029592;28;20041;-63
2024/01/15 01:27:33;;;;;;;22.25;10.68;;;;;;;-146.58;100.00;69501.63;5030989;28;20033;-63
2024/01/15 01:29:58;;;;;;;15.55;8.05;;;;;;;-146.58;100.00;69501.63;5029725;28;20493;-63
2024/01/15 01:32:23;;;;;;;16.38;7.70;;;;;;;-146.58;100.00;69501.63;5030664;28;20507;-63
2024/01/15 01:34:49;;;;;;;16.73;8.30;;;;;;;-146.58;100.00;69501.63;5029694;28;20034;-65
2024/01/15 01:37:15;;;;;;;17.55;8.95;;;;;;;-146.58;100.00;69501.63;5031070;28;20052;-64
2024/01/15 01:39:41;;;;;;;20.48;8.60;;;;;;;-146.58;100.00;69501.63;5029183;28;20100;-65
2024/01/15 01:42:08;;;;;;;29.33;8.93;;;;;;;-146.58;100.00;69501.63;5030999;28;20065;-64
2024/01/15 01:44:33;;;;;;;21.50;7.57;;;;;;;-146.58;100.00;69501.63;5029262;28;20485;-64
2024/01/15 01:46:59;;;;;;;20.30;6.93;;;;;;;-146.58;100.00;69501.63;5030687;28;20033;-64
2024/01/15 01:49:26;;;;;;;19.67;7.93;;;;;;;-146.58;100.00;69501.63;5029431;28;20041;-64
2024/01/15 01:51:52;;;;;;;18.58;8.07;;;;;;;-146.58;100.00;69501.63;5030861;28;20028;-64
2024/01/15 01:54:18;;;;;;;11.73;5.65;;;;;;;-146.58;100.00;69501.63;5029191;28;20057;-64
2024/01/15 01:56:43;;;;;;;17.40;6.88;;;;;;;-146.58;100.00;69501.63;5030593;28;20021;-64
2024/01/15 01:59:11;;;;;;;15.85;7.47;;;;;;;-146.58;100.00;69501.63;5029418;28;20037;-64
2024/01/15 02:01:36;;;;;;;14.40;6.55;;;;;;;-146.58;100.00;69501.63;5028845;28;20396;-64
2024/01/15 02:04:03;;;;;;;11.70;6.85;;;;;;;-146.58;100.00;69501.63;5029486;28;20033;-64
2024/01/15 02:06:29;;;;;;;19.95;7.13;;;;;;;-146.58;100.00;69501.63;5030642;28;20029;-64
2024/01/15 02:08:55;;;;;;;13.20;6.03;;;;;;;-146.58;100.00;69501.63;5029323;28;20038;-65
2024/01/15 02:11:21;;;;;;;14.93;7.38;;;;;;;-146.58;100.00;69501.63;5030577;28;20021;-64
2024/01/15 02:13:46;;;;;;;13.82;5.65;;;;;;;-146.58;100.00;69501.63;5032231;28;20045;-64
2024/01/15 02:16:12;;;;;;;15.68;5.93;;;;;;;-146.58;100.00;69501.63;5034332;28;20021;-64
2024/01/15 02:18:42;;;;;;;26.10;7.78;;;;;;;-146.58;100.00;69501.63;5033096;28;20025;-64
2024/01/15 02:21:08;;;;;;;8.32;4.28;;;;;;;-146.58;100.00;69501.63;5034653;28;20140;-63
2024/01/15 02:23:33;;;;;;;17.92;6.00;;;;;;;-146.58;100.00;69501.63;5032938;28;20096;-64
2024/01/15 02:25:59;;;;;;;26.52;6.72;;;;;;;-146.58;100.00;69501.63;5034332;28;20461;-63
2024/01/15 02:28:24;;;;;;;17.90;5.40;;;;;;;-146.58;100.00;69501.63;5034525;28;20067;-63
2024/01/15 02:30:49;;;;;;;24.15;6.43;;;;;;;-146.58;100.00;69501.63;5032738;28;20060;-63
2024/01/15 02:33:15;;;;;;;21.05;6.47;;;;;;;-146.58;100.00;69501.63;5034315;28;20033;-63
2024/01/15 02:35:40;;;;;;;21.13;5.38;;;;;;;-146.58;100.00;69501.63;5032911;28;20037;-62
2024/01/15 02:38:06;;;;;;;17.08;5.53;;;;;;;-146.58;100.00;69501.63;5034451;28;20049;-62
2024/01/15 02:40:32;;;;;;;18.42;5.00;;;;;;;-146.58;100.00;69501.63;5032097;28;20097;-65
2024/01/15 02:42:58;;;;;;;15.02;3.92;;;;;;;-146.58;100.00;69501.63;5034407;28;20370;-65
2024/01/15 02:45:23;;;;;;;9.23;4.88;;;;;;;-146.58;100.00;69501.63;5032911;28;20037;-65
2024/01/15 02:47:49;;;;;;;14.63;4.15;;;;;;;-146.58;100.00;69501.63;5033661;28;20812;-65
2024/01/15 02:50:14;;;;;;;10.73;4.85;;;;;;;-146.58;100.00;69501.63;5032879;28;20043;-64
2024/01/15 02:52:41;;;;;;;27.83;5.88;;;;;;;-146.58;100.00;69501.63;5033907;28;20108;-64
2024/01/15 02:55:07;;;;;;;17.13;6.22;;;;;;;-146.58;100.00;69501.63;5032361;28;20044;-64
2024/01/15 02:57:32;;;;;;;11.60;4.07;;;;;;;-146.58;100.00;69501.63;5033866;28;20030;-64
2024/01/15 02:59:58;;;;;;;7.88;4.80;;;;;;;-146.58;100.00;69501.63;5032462;28;20037;-64
2024/01/15 03:02:23;;;;;;;12.13;5.18;;;;;;;-146.58;100.00;69501.63;5033626;28;20113;-64
2024/01/15 03:04:49;;;;;;;9.63;4.60;;;;;;;-146.58;100.00;69501.63;5032335;28;20053;-64
2024/01/15 03:07:14;;;;;;;16.23;6.40;;;;;;;-146.58;100.00;69501.63;5033933;28;20025;-64
2024/01/15 03:09:39;;;;;;;33.05;6.75;;;;;;;-146.58;100.00;69501.63;5031713;28;20046;-64
2024/01/15 03:12:05;;;;;;;14.93;5.30;;;;;;;-146.58;100.00;69501.63;5033948;28;20389;-64
2024/01/15 03:14:30;;;;;;;7.85;3.80;;;;;;;-146.58;100.00;69501.63;5031953;28;20041;-64
2024/01/15 03:16:56;;;;;;;21.58;5.20;;;;;;;-146.58;100.00;69501.63;5033355;28;20492;-64
2024/01/15 03:19:21;;;;;;;18.75;5.50;;;;;;;-146.58;100.00;69501.63;5030908;28;20076;-66
2024/01/15 03:21:47;;;;;;;35.08;8.43;;;;;;;-146.58;100.00;69501.63;5033500;28;20025;-65
2024/01/15 03:24:12;;;;;;;10.43;4.78;;;;;;;-146.58;100.00;69501.63;5030493;28;20033;-66
2024/01/15 03:26:38;;;;;;;7.47;4.43;;;;;;;-146.58;100.00;69501.63;5033026;28;20030;-65
2024/01/15 03:29:03;;;;;;;12.48;3.95;;;;;;;-146.58;100.00;69501.63;5031982;28;20033;-65
2024/01/15 03:31:28;;;;;;;9.32;4.85;;;;;;;-146.58;100.00;69501.63;5033216;28;20029;-65
2024/01/15 03:33:54;;;;;;;19.30;6.47;;;;;;;-146.58;100.00;69501.63;5033274;28;20366;-65
2024/01/15 03:36:19;;;;;;;13.73;5.40;;;;;;;-146.58;100.00;69501.63;5031952;28;20069;-65
2024/01/15 03:38:45;;;;;;;9.85;4.43;;;;;;;-146.58;100.00;69501.63;5032410;28;20021;-65
2024/01/15 03:41:10;;;;;;;12.38;6.10;;;;;;;-146.58;100.00;69501.63;5031901;28;20533;-65
2024/01/15 03:43:36;;;;;;;17.25;6.75;;;;;;;-146.58;100.00;69501.63;5033039;28;20036;-65
2024/01/15 03:46:02;;;;;;;15.80;5.97;;;;;;;-146.58;100.00;69501.63;5031383;28;20116;-66
2024/01/15 03:48:27;;;;;;;12.90;6.32;;;;;;;-146.58;100.00;69501.63;5033185;28;20026;-67
2024/01/15 03:50:53;;;;;;;8.30;4.10;;;;;;;-146.58;100.00;69501.63;5031329;28;20565;-67
2024/01/15 03:53:18;;;;;;;8.10;5.35;;;;;;;-146.58;100.00;69501.63;5031443;28;20037;-64
2024/01/15 03:55:44;;;;;;;13.63;5.40;;;;;;;-146.58;100.00;69501.63;5031340;28;20037;-65
2024/01/15 03:58:09;;;;;;;21.92;3.47;;;;;;;-146.58;100.00;69501.63;5032792;28;20079;-65
2024/01/15 04:00:34;;;;;;;9.45;4.75;;;;;;;-146.58;100.00;69501.63;5031031;28;20378;-65
2024/01/15 04:03:00;;;;;;;11.43;4.53;;;;;;;-146.58;100.00;69501.63;5032933;28;20087;-67
2024/01/15 04:05:25;;;;;;;9.32;5.47;;;;;;;-146.58;100.00;69501.63;5031287;28;20041;-67
2024/01/15 04:07:51;;;;;;;14.82;6.05;;;;;;;-146.58;100.00;69501.63;5032177;28;20032;-67
2024/01/15 04:10:16;;;;;;;13.48;5.72;;;;;;;-146.58;100.00;69501.63;5031500;28;20374;-67
2024/01/15 04:12:41;;;;;;;15.45;5.80;;;;;;;-146.58;100.00;69501.63;5032525;28;20029;-67
2024/01/15 04:15:07;;;;;;;14.73;4.93;;;;;;;-146.58;100.00;69501.63;5030910;28;20025;-67
2024/01/15 04:17:33;;;;;;;17.88;6.32;;;;;;;-146.58;100.00;69501.63;5032497;28;20132;-66
2024/01/15 04:19:58;;;;;;;17.85;4.57;;;;;;;-146.58;100.00;69501.63;5031042;28;20038;-67
2024/01/15 04:22:24;;;;;;;16.75;5.13;;;;;;;-146.58;100.00;69501.63;5032190;28;20017;-66
2024/01/15 04:24:50;;;;;;;19.58;6.28;;;;;;;-146.58;100.00;69501.63;5030780;28;20041;-66
2024/01/15 04:27:15;;;;;;;14.50;5.40;;;;;;;-146.58;100.00;69501.63;5032299;28;20543;-66
2024/01/15 04:29:40;;;;;;;26.60;6.25;;;;;;;-146.58;100.00;69501.63;5030360;28;20040;-65
2024/01/15 04:32:06;;;;;;;10.05;4.50;;;;;;;-146.58;100.00;69501.63;5032313;28;20018;-64
2024/01/15 04:34:31;;;;;;;11.60;3.80;;;;;;;-146.58;100.00;69501.63;5030521;28;20025;-64
2024/01/15 04:36:57;;;;;;;24.15;7.05;;;;;;;-146.58;100.00;69501.63;5031314;28;20138;-64
2024/01/15 04:39:22;;;;;;;8.93;4.43;;;;;;;-146.58;100.00;69501.63;5030684;28;20155;-64
2024/01/15 04:41:48;;;;;;;12.35;4.05;;;;;;;-146.58;100.00;69501.63;5031713;28;20036;-64
2024/01/15 04:44:13;;;;;;;16.15;7.10;;;;;;;-146.58;100.00;69501.63;5031832;28;20040;-64
2024/01/15 04:46:39;;;;;;;31.02;4.05;;;;;;;-146.58;100.00;69501.63;5030196;28;20111;-64
2024/01/15 04:49:04;;;;;;;9.15;4.35;;;;;;;-146.58;100.00;69501.63;5032160;28;20036;-63
2024/01/15 04:51:30;;;;;;;9.25;3.20;;;;;;;-146.58;100.00;69501.63;5029433;28;20045;-62
2024/01/15 04:53:55;;;;;;;10.88;4.90;;;;;;;-146.58;100.00;69501.63;5030920;28;20029;-60
2024/01/15 04:56:21;;;;;;;20.92;5.65;;;;;;;-146.58;100.00;69501.63;5030487;28;20036;-65
2024/01/15 04:58:46;;;;;;;9.55;3.75;;;;;;;-146.58;100.00;69501.63;5031315;28;20476;-65
2024/01/15 05:01:11;;;;;;;14.00;5.65;;;;;;;-146.58;100.00;69501.63;5029509;28;20412;-65
2024/01/15 05:03:37;;;;;;;18.13;5.00;;;;;;;-146.58;100.00;69501.63;5031399;28;20484;-65
2024/01/15 05:06:03;;;;;;;9.48;3.88;;;;;;;-146.58;100.00;69501.63;5030154;28;20042;-65
2024/01/15 05:08:28;;;;;;;9.30;3.72;;;;;;;-146.58;100.00;69501.63;5030942;28;20087;-65
2024/01/15 05:10:53;;;;;;;9.30;4.43;;;;;;;-146.58;100.00;69501.63;5029258;28;20393;-66
2024/01/15 05:13:19;;;;;;;13.05;4.43;;;;;;;-146.58;100.00;69501.63;5031452;28;20028;-66
2024/01/15 05:15:44;;;;;;;7.03;3.45;;;;;;;-146.58;100.00;69501.63;5029365;28;20038;-65
2024/01/15 05:18:09;;;;;;;10.57;4.35;;;;;;;-146.58;100.00;69501.63;5031334;28;20069;-64
2024/01/15 05:20:35;;;;;;;13.75;3.17;;;;;;;-146.58;100.00;69501.63;5029516;28;20041;-65
2024/01/15 05:23:00;;;;;;;5.80;3.22;;;;;;;-146.58;100.00;69501.63;5031120;28;20040;-65
2024/01/15 05:25:26;;;;;;;8.88;3.72;;;;;;;-146.58;100.00;69501.63;5029931;28;20497;-65
2024/01/15 05:27:51;;;;;;;3.75;3.47;;;;;;;-146.58;100.00;69501.63;5031070;28;20029;-64
2024/01/15 05:30:16;;;;;;;12.93;3.88;;;;;;;-146.58;100.00;69501.63;5029570;28;20563;-64
2024/01/15 05:32:42;;;;;;;10.02;5.25;;;;;;;-146.58;100.00;69501.63;5030991;28;20036;-64
2024/01/15 05:35:07;;;;;;;14.90;4.32;;;;;;;-146.58;100.00;69501.63;5029233;28;20034;-66
2024/01/15 05:37:33;;;;;;;6.80;4.00;;;;;;;-146.58;100.00;69501.63;5030166;28;20061;-65
2024/01/15 05:39:58;;;;;;;20.27;5.30;;;;;;;-146.58;100.00;69501.63;5029697;28;20034;-65
2024/01/15 05:42:23;;;;;;;7.40;2.72;;;;;;;-146.58;100.00;69501.63;5031122;28;20028;-66
2024/01/15 05:44:49;;;;;;;16.08;5.05;;;;;;;-146.58;100.00;69501.63;5029056;28;20037;-66
2024/01/15 05:47:14;;;;;;;8.07;3.72;;;;;;;-146.58;100.00;69501.63;5030379;28;20029;-66
2024/01/15 05:49:40;;;;;;;12.73;3.20;;;;;;;-146.58;100.00;69501.63;5029198;28;20056;-66
2024/01/15 05:52:05;;;;;;;6.07;3.83;;;;;;;-146.58;100.00;69501.63;5030341;28;20025;-66
2024/01/15 05:54:30;;;;;;;15.90;5.93;;;;;;;-146.58;100.00;69501.63;5029415;28;20041;-66
2024/01/15 05:56:56;;;;;;;11.10;3.65;;;;;;;-146.58;100.00;69501.63;5030841;28;20484;-66
2024/01/15 05:59:21;;;;;;;9.02;5.15;;;;;;;-146.58;100.00;69501.63;5030380;28;20026;-65
2024/01/15 06:01:46;;;;;;;5.43;3.20;;;;;;;-146.58;100.00;69501.63;5029219;28;20408;-64
2024/01/15 06:04:12;;;;;;;13.23;3.50;;;;;;;-146.58;100.00;69501.63;5030840;28;20033;-64
2024/01/15 06:06:37;;;;;;;4.95;4.45;;;;;;;-146.58;100.00;69501.63;5028602;28;20524;-65
2024/01/15 06:09:05;;;;;;;7.00;3.83;;;;;;;-146.58;100.00;69501.63;5030776;28;20025;-64
2024/01/15 06:11:31;;;;;;;5.47;4.47;;;;;;;-146.58;100.00;69501.63;5028998;28;20041;-64
2024/01/15 06:13:57;;;;;;;16.80;5.63;;;;;;;-146.58;100.00;69501.63;5030501;28;20057;-65
2024/01/15 06:16:23;;;;;;;6.93;4.65;;;;;;;-146.58;100.00;69501.63;5029254;28;20034;-64
2024/01/15 06:18:49;;;;;;;12.65;5.20;;;;;;;-146.58;100.00;69501.63;5030459;28;20033;-65
2024/01/15 06:21:15;;;;;;;5.82;3.65;;;;;;;-146.58;100.00;69501.63;5028891;28;20114;-65
2024/01/15 06:23:41;;;;;;;6.93;3.95;;;;;;;-146.58;100.00;69501.63;5030551;28;20565;-65
2024/01/15 06:26:06;;;;;;;19.33;5.22;;;;;;;-146.58;100.00;69501.63;5029259;28;20124;-66
2024/01/15 06:28:31;;;;;;;11.07;4.68;;;;;;;-146.58;100.00;69501.63;5028500;28;20018;-66
2024/01/15 06:30:58;;;;;;;6.68;4.93;;;;;;;-146.58;100.00;69501.63;5030597;28;20592;-63
2024/01/15 06:33:23;;;;;;;7.72;4.25;;;;;;;-146.58;100.00;69501.63;5029209;28;20036;-63
2024/01/15 06:35:49;;;;;;;9.25;5.32;;;;;;;-146.58;100.00;69501.63;5028507;28;20022;-64
2024/01/15 06:38:14;;;;;;;8.70;4.50;;;;;;;-146.58;100.00;69501.63;5028957;28;20025;-63
2024/01/15 06:40:45;;;;;;;14.60;5.82;;;;;;;-146.58;100.00;69501.63;5029629;28;20107;-62
2024/01/15 06:43:13;;;;;;;17.83;6.15;;;;;;;-146.58;100.00;69501.63;5029762;28;20025;-63
2024/01/15 06:45:38;;;;;;;13.37;6.07;;;;;;;-146.58;100.00;69501.63;5028471;28;20054;-64
2024/01/15 06:48:04;;;;;;;17.30;6.85;;;;;;;-146.58;100.00;69501.63;5030079;28;20431;-65
2024/01/15 06:50:29;;;;;;;10.15;5.40;;;;;;;-146.58;100.00;69501.63;5028376;28;20043;-64
2024/01/15 06:52:55;;;;;;;15.15;6.80;;;;;;;-146.58;100.00;69501.63;5032097;28;20026;-61
2024/01/15 06:55:20;;;;;;;17.35;6.10;;;;;;;-146.58;100.00;69501.63;5028845;28;20041;-59
2024/01/15 06:57:45;;;;;;;11.98;4.70;;;;;;;-146.58;100.00;69501.63;5028881;28;20392;-58
2024/01/15 07:00:11;;;;;;;10.40;6.53;;;;;;;-146.58;100.00;69501.63;5031012;28;20037;-58
2024/01/15 07:02:36;;;;;;;6.85;6.20;;;;;;;-146.58;100.00;69501.63;5033116;28;20063;-59
2024/01/15 07:05:04;;;;;;;12.98;6.45;;;;;;;-146.58;100.00;69501.63;5031988;28;20045;-58
2024/01/15 07:07:30;;;;;;;15.00;6.95;;;;;;;-146.58;100.00;69501.63;5033615;28;20528;-58
2024/01/15 07:09:55;;;;;;;25.30;7.80;;;;;;;-146.58;100.00;69501.63;5032376;28;20141;-58
2024/01/15 07:12:21;;;;;;;10.25;6.63;;;;;;;-146.58;100.00;69501.63;5033611;28;20083;-59
2024/01/15 07:14:46;;;;;;;22.05;7.25;;;;;;;-146.58;100.00;69501.63;5032117;28;20048;-58
2024/01/15 07:17:11;;;;;;;17.42;6.82;;;;;;;-146.58;100.00;69501.63;5033142;28;20481;-59
2024/01/15 07:19:37;;;;;;;10.85;6.45;;;;;;;-146.58;100.00;69501.63;5031857;28;20519;-58
2024/01/15 07:22:02;;;;;;;19.20;8.88;;;;;;;-146.58;100.00;69501.63;5033665;28;20025;-59
2024/01/15 07:24:28;;;;;;;10.93;8.00;;;;;;;-146.58;100.00;69501.63;5031785;28;20045;-57
2024/01/15 07:26:53;;;;;;;18.67;6.55;;;;;;;-146.58;100.00;69501.63;5032664;28;20512;-58
2024/01/15 07:29:18;;;;;;;17.45;5.88;;;;;;;-146.58;100.00;69501.63;5031291;28;20042;-58
2024/01/15 07:31:49;;;;;;;12.43;6.72;;;;;;;-146.58;100.00;69501.63;5028326;28;20025;-59
2024/01/15 07:34:14;;;;;;;10.20;5.60;;;;;;;-146.58;100.00;69501.63;5024823;28;20041;-59
2024/01/15 07:36:40;;;;;;;10.48;5.43;;;;;;;-146.58;100.00;69501.63;5031786;28;20399;-58
2024/01/15 07:39:05;;;;;;;20.60;6.38;;;;;;;-146.58;100.00;69501.63;5031055;28;20041;-58
2024/01/15 07:41:31;;;;;;;8.90;6.38;;;;;;;-146.58;100.00;69501.63;5031135;28;20025;-58
2024/01/15 07:43:56;;;;;;;8.23;6.75;;;;;;;-146.58;100.00;69501.63;5029202;28;20037;-59
2024/01/15 07:46:21;;;;;;;10.85;6.07;;;;;;;-146.58;100.00;69501.63;5030617;28;20025;-58
2024/01/15 07:48:47;;;;;;;10.00;6.80;;;;;;;-146.58;100.00;69501.63;5028536;28;20037;-58
2024/01/15 07:51:12;;;;;;;12.77;6.03;;;;;;;-146.58;100.00;69501.63;5031234;28;20017;-58
2024/01/15 07:53:37;;;;;;;7.25;5.50;;;;;;;-146.58;100.00;69501.63;5029546;28;20670;-58
2024/01/15 07:56:03;;;;;;;9.30;4.68;;;;;;;-146.58;100.00;69501.63;5031120;28;20014;-58
2024/01/15 07:58:28;;;;;;;19.45;7.07;;;;;;;-146.58;100.00;69501.63;5029368;28;20124;-59
2024/01/15 08:00:54;;;;;;;10.07;6.18;;;;;;;-146.58;100.00;69501.63;5031640;28;20013;-59
2024/01/15 08:03:19;;;;;;;10.70;5.90;;;;;;;-146.58;100.00;69501.63;5033083;28;20491;-59
2024/01/15 08:05:44;;;;;;;10.15;5.65;;;;;;;-146.58;100.00;69501.63;5030677;28;20520;-59
2024/01/15 08:08:10;;;;;;;7.28;5.35;;;;;;;-146.58;100.00;69501.63;5032754;28;20029;-58
2024/01/15 08:10:35;;;;;;;7.30;5.60;;;;;;;-146.58;100.00;69501.63;5030491;28;20042;-58
2024/01/15 08:13:01;;;;;;;12.02;6.22;;;;;;;-146.58;100.00;69501.63;5032437;28;20025;-58
2024/01/15 08:15:26;;;;;;;16.20;7.85;;;;;;;-146.58;100.00;69501.63;5031175;28;20065;-58
2024/01/15 08:17:51;;;;;;;12.27;8.15;;;;;;;-146.58;100.00;69501.63;5032491;28;20083;-58
2024/01/15 08:20:17;;;;;;;11.65;7.82;;;;;;;-146.58;100.00;69501.63;5030973;28;20038;-58
2024/01/15 08:22:42;;;;;;;12.52;6.90;;;;;;;-146.58;100.00;69501.63;5032329;28;20377;-59
2024/01/15 08:25:08;;;;;;;11.10;8.00;;;;;;;-146.58;100.00;69501.63;5031184;28;20038;-59
2024/01/15 08:27:34;;;;;;;11.10;8.63;;;;;;;-146.58;100.00;69501.63;5031863;28;20105;-59
2024/01/15 08:29:59;;;;;;;23.15;12.55;;;;;;;-146.58;100.00;69501.63;5030872;28;20049;-58
2024/01/15 08:32:24;;;;;;;16.38;8.52;;;;;;;-146.58;100.00;69501.63;5032463;28;20014;-59
2024/01/15 08:34:52;;;;;;;10.02;8.55;;;;;;;-146.58;100.00;69501.63;5030290;28;20417;-59
2024/01/15 08:37:17;;;;;;;16.17;9.93;;;;;;;-146.58;100.00;69501.63;5032181;28;20057;-58
2024/01/15 08:39:43;;;;;;;11.02;8.23;;;;;;;-146.58;100.00;69501.63;5030780;28;20516;-58
2024/01/15 08:42:08;;;;;;;12.95;6.43;;;;;;;-146.58;100.00;69501.63;5031793;28;20029;-58
2024/01/15 08:44:34;;;;;;;12.38;8.38;;;;;;;-146.58;100.00;69501.63;5030470;28;20041;-58
2024/01/15 08:46:59;;;;;;;14.43;9.55;;;;;;;-146.58;100.00;69501.63;5031897;28;20032;-59
2024/01/15 08:49:25;;;;;;;14.73;6.32;;;;;;;-146.58;100.00;69501.63;5030155;28;20044;-59
2024/01/15 08:51:50;;;;;;;7.97;5.68;;;;;;;-146.58;100.00;69501.63;5031892;28;20037;-58
2024/01/15 08:54:15;;;;;;;7.20;5.65;;;;;;;-146.58;100.00;69501.63;5030803;28;20034;-59
2024/01/15 08:56:41;;;;;;;12.73;7.63;;;;;;;-146.58;100.00;69501.63;5031205;28;20017;-58
2024/01/15 08:59:06;;;;;;;8.23;6.65;;;;;;;-146.58;100.00;69501.63;5030547;28;20304;-58
2024/01/15 09:01:32;;;;;;;15.90;8.23;;;;;;;-146.58;100.00;69501.63;5031633;28;20071;-58
2024/01/15 09:03:57;;;;;;;9.48;6.43;;;;;;;-146.58;100.00;69501.63;5028227;28;20048;-59
2024/01/15 09:06:23;;;;;;;12.07;6.95;;;;;;;-146.58;100.00;69501.63;5030462;28;20029;-58
2024/01/15 09:08:49;;;;;;;12.27;7.22;;;;;;;-146.58;100.00;69501.63;5029296;28;20034;-58
2024/01/15 09:11:14;;;;;;;8.98;7.13;;;;;;;-146.58;100.00;69501.63;5030829;28;20033;-58
2024/01/15 09:13:40;;;;;;;10.55;8.02;;;;;;;-146.58;100.00;69501.63;5029311;28;20036;-59
2024/01/15 09:16:05;;;;;;;10.98;8.02;;;;;;;-146.58;100.00;69501.63;5031358;28;20014;-58
2024/01/15 09:18:31;;;;;;;11.68;10.45;;;;;;;-146.58;100.00;69501.63;5029193;28;20667;-58
2024/01/15 09:20:56;;;;;;;10.93;6.95;;;;;;;-146.58;100.00;69501.63;5030359;28;20029;-58
2024/01/15 09:23:22;;;;;;;10.23;6.68;;;;;;;-146.58;100.00;69501.63;5030117;28;20492;-58
2024/01/15 09:25:48;;;;;;;11.93;7.63;;;;;;;-146.58;100.00;69501.63;5028964;28;20052;-58
2024/01/15 09:28:14;;;;;;;10.82;8.60;;;;;;;-146.58;100.00;69501.63;5028573;28;20025;-58
2024/01/15 09:30:39;;;;;;;9.73;6.82;;;;;;;-146.58;100.00;69501.63;5028512;28;20037;-58
2024/01/15 09:33:05;;;;;;;10.55;7.70;;;;;;;-146.58;100.00;69501.63;5029840;28;20021;-58
2024/01/15 09:35:30;;;;;;;17.33;7.53;;;;;;;-146.58;100.00;69501.63;5028136;28;20049;-58
2024/01/15 09:37:55;;;;;;;12.65;9.50;;;;;;;-146.58;100.00;69501.63;5030639;28;20021;-58
2024/01/15 09:40:21;;;;;;;10.45;7.45;;;;;;;-146.58;100.00;69501.63;5029077;28;20037;-57
2024/01/15 09:42:47;;;;;;;8.18;7.40;;;;;;;-146.58;100.00;69501.63;5030708;28;20034;-58
2024/01/15 09:45:13;;;;;;;10.13;6.82;;;;;;;-146.58;100.00;69501.63;5028921;28;20128;-58
2024/01/15 09:47:40;;;;;;;6.80;6.25;;;;;;;-146.58;100.00;69501.63;5030667;28;20431;-58
2024/01/15 09:50:06;;;;;;;7.78;6.05;;;;;;;-146.58;100.00;69501.63;5027974;28;20523;-59
2024/01/15 09:52:31;;;;;;;9.38;7.55;;;;;;;-146.58;100.00;69501.63;5027805;28;20033;-58
2024/01/15 09:55:00;;;;;;;6.28;5.68;;;;;;;-146.58;100.00;69501.63;5027349;28;20483;-58
2024/01/15 09:57:25;;;;;;;6.35;5.13;;;;;;;-146.58;100.00;69501.63;5028908;28;20408;-58
2024/01/15 09:59:53;;;;;;;7.13;6.50;;;;;;;-146.58;100.00;69501.63;5027234;28;20042;-58
2024/01/15 10:02:19;;;;;;;10.35;5.20;;;;;;;-146.58;100.00;69501.63;5029023;28;20030;-58
2024/01/15 10:04:44;;;;;;;23.85;7.70;;;;;;;-146.58;100.00;69501.63;5027932;28;20523;-58
2024/01/15 10:07:16;;;;;;;5.82;5.22;;;;;;;-146.58;100.00;69501.63;5030412;28;20025;-58
2024/01/15 10:09:42;;;;;;;7.57;5.78;;;;;;;-146.58;100.00;69501.63;5028772;28;20441;-58
2024/01/15 10:12:09;;;;;;;11.45;4.90;;;;;;;-146.58;100.00;69501.63;5030372;28;20021;-59
2024/01/15 10:14:34;;;;;;;6.40;4.55;;;;;;;-146.58;100.00;69501.63;5029087;28;20494;-58
2024/01/15 10:17:00;;;;;;;10.48;8.63;;;;;;;-146.58;100.00;69501.63;5030713;28;20025;-58
2024/01/15 10:19:25;;;;;;;10.27;7.45;;;;;;;-146.58;100.00;69501.63;5028819;28;20045;-58
2024/01/15 10:21:50;;;;;;;6.20;5.50;;;;;;;-146.58;100.00;69501.63;5029813;28;20083;-58
2024/01/15 10:24:17;;;;;;;6.50;5.90;;;;;;;-146.58;100.00;69501.63;5028485;28;20046;-57
2024/01/15 10:26:42;;;;;;;6.13;5.53;;;;;;;-146.58;100.00;69501.63;5030013;28;20028;-58
2024/01/15 10:29:08;;;;;;;4.57;4.18;;;;;;;-146.58;100.00;69501.63;5028860;28;20038;-58
2024/01/15 10:31:33;;;;;;;6.50;4.78;;;;;;;-146.58;100.00;69501.63;5029769;28;20021;-59
2024/01/15 10:34:11;;;;;;;5.68;4.72;;;;;;;-146.58;100.00;69501.63;5029996;28;20040;-58
2024/01/15 10:36:39;;;;;;;7.03;5.50;;;;;;;-146.58;100.00;69501.63;5034116;28;20024;-58
2024/01/15 10:39:07;;;;;;;8.65;5.30;;;;;;;-146.58;100.00;69501.63;5033249;28;20045;-58
2024/01/15 10:41:32;;;;;;;6.63;6.03;;;;;;;-146.58;100.00;69501.63;5032494;28;20432;-58
2024/01/15 10:43:58;;;;;;;9.90;5.75;;;;;;;-146.58;100.00;69501.63;5032991;28;20037;-58
2024/01/15 10:46:24;;;;;;;8.07;5.07;;;;;;;-146.58;100.00;69501.63;5034271;28;20056;-58
2024/01/15 10:48:50;;;;;;;9.93;5.70;;;;;;;-146.58;100.00;69501.63;5032054;28;20041;-58
2024/01/15 10:51:16;;;;;;;18.63;6.60;;;;;;;-146.58;100.00;69501.63;5034354;28;20108;-58
2024/01/15 10:53:43;;;;;;;12.23;5.78;;;;;;;-146.58;100.00;69501.63;5032546;28;20100;-58
2024/01/15 10:56:11;;;;;;;11.38;5.57;;;;;;;-146.58;100.00;69501.63;5033908;28;20044;-58